Flight Track Log - Related Links

Times and Time Zones

All times are in EDT time to prevent confusion due to time zone crossing. See the SKW5511 flight status page for this flight to view local times or setup timezone preferences in your user account.


Time Position Orientation Groundspeed Altitude Reporting Facility
EDT Latitude Longitude Course Direction KTS MPH feet Rate Location/Type
Sat 09:08:45 AM 35.3500 -119.0281 131° Southeast 262 302 33,000  Level Los Angeles Center
Sat 09:09:00 AM 35.0153 -118.5646 129° Southeast  Level FlightAware Approximate
Sat 09:09:45 AM 35.3075 -118.9561 126° Southeast 317 365 9,400  Level Los Angeles Center
Sat 09:10:00 AM 34.9357 -118.4618 129° Southeast  Level FlightAware Approximate
Sat 09:10:45 AM 35.2375 -118.8725 136° Southeast 314 361 12,000  Level Los Angeles Center
Sat 09:11:00 AM 34.8585 -118.3557 132° Southeast  Level FlightAware Approximate
Sat 09:11:46 AM 35.1742 -118.7875 132° Southeast 336 387 13,700  Level Los Angeles Center
Sat 09:12:00 AM 34.7758 -118.2564 131° Southeast  Level FlightAware Approximate
Sat 09:12:46 AM 35.1086 -118.6997 132° Southeast 350 403 15,600  Level Los Angeles Center
Sat 09:13:00 AM 34.6988 -118.1503 131° Southeast  Level FlightAware Approximate
Sat 09:13:47 AM 35.0417 -118.6097 132° Southeast 358 412 17,200  Level Los Angeles Center
Sat 09:14:47 AM 34.9722 -118.5169 132° Southeast 369 425 18,800 1,339 Climbing Los Angeles Center
Sat 09:15:48 AM 34.9044 -118.4175 130° Southeast 386 444 19,900 1,140 Climbing Los Angeles Center
Sat 09:16:48 AM 34.9219 -118.2933 80° East 385 443 21,100 1,240 Climbing Los Angeles Center
Sat 09:17:49 AM 34.9667 -118.1761 65° Northeast 381 438 22,400 1,289 Climbing Los Angeles Center
Sat 09:18:49 AM 35.0139 -118.0589 64° Northeast 385 443 23,700 1,190 Climbing Los Angeles Center
Sat 09:19:50 AM 35.0600 -117.9367 65° Northeast 394 453 24,800 1,140 Climbing Los Angeles Center
Sat 09:20:50 AM 35.1072 -117.8153 65° Northeast 396 456 26,000 1,140 Climbing Los Angeles Center
Sat 09:21:51 AM 35.1553 -117.6914 65° Northeast 395 455 27,100 843 Climbing Los Angeles Center
Sat 09:22:51 AM 35.2036 -117.5614 66° East 404 465 27,700 744 Climbing Los Angeles Center
Sat 09:23:52 AM 35.2517 -117.4328 65° Northeast 410 472 28,600 689 Climbing Los Angeles Center
Sat 09:24:53 AM 35.3000 -117.3031 65° Northeast 415 478 29,100 496 Climbing Los Angeles Center
Sat 09:25:53 AM 35.3500 -117.1708 65° Northeast 423 487 29,600 645 Climbing Los Angeles Center
Sat 09:26:54 AM 35.3992 -117.0381 66° East 427 491 30,400 893 Climbing Los Angeles Center
Sat 09:27:54 AM 35.4489 -116.9069 65° Northeast 426 490 31,400 992 Climbing Los Angeles Center
Sat 09:28:55 AM 35.4956 -116.7786 66° East 417 480 32,400 787 Climbing Los Angeles Center
Sat 09:29:56 AM 35.5439 -116.6506 65° Northeast 414 476 33,000 295 Climbing Los Angeles Center
Sat 09:30:57 AM 35.5911 -116.5203 66° East 417 480 33,000  Level Los Angeles Center
Sat 09:31:57 AM 35.6411 -116.3856 65° Northeast 433 498 33,000  Level Los Angeles Center
Sat 09:32:58 AM 35.6922 -116.2478 65° Northeast 443 510 33,000  Level Los Angeles Center
Sat 09:33:59 AM 35.7431 -116.1072 66° East 449 517 33,000  Level Los Angeles Center
Sat 09:35:00 AM 35.7931 -115.9683 66° East 447 514 33,000  Level Los Angeles Center
Sat 09:36:00 AM 35.8436 -115.8244 67° East 441 507 33,000  Level Los Angeles Center
Sat 09:37:01 AM 35.8931 -115.6892 66° East 437 503 33,000  Level Los Angeles Center
Sat 09:38:02 AM 35.9408 -115.5550 66° East 433 498 33,000  Level Los Angeles Center
Sat 09:39:03 AM 35.9961 -115.3967 67° East 424 488 33,000  Level Los Angeles Center
Sat 09:40:04 AM 36.0428 -115.2647 66° East 423 487 33,000  Level Los Angeles Center
Sat 09:41:04 AM 36.0886 -115.1308 67° East 426 490 33,000  Level Los Angeles Center
Sat 09:42:05 AM 36.1319 -114.9933 69° East 430 495 33,000  Level Los Angeles Center
Sat 09:43:06 AM 36.1744 -114.8550 69° East 432 497 33,000  Level Los Angeles Center
Sat 09:44:07 AM 36.2167 -114.7158 69° East 434 499 33,000  Level Los Angeles Center
Sat 09:45:08 AM 36.2592 -114.5747 69° East 437 503 33,000  Level Los Angeles Center
Sat 09:46:09 AM 36.3019 -114.4344 69° East 437 503 33,000  Level Los Angeles Center
Sat 09:47:10 AM 36.3442 -114.2931 70° East 437 503 33,000  Level Los Angeles Center
Sat 09:48:11 AM 36.3861 -114.1525 70° East 437 503 33,000  Level Los Angeles Center
Sat 09:49:12 AM 36.4283 -114.0119 69° East 436 502 33,000  Level Los Angeles Center
Sat 09:50:13 AM 36.4783 -113.8411 70° East 439 505 33,000  Level Los Angeles Center
Sat 09:51:14 AM 36.5156 -113.7161 70° East 438 504 33,000 148 Level Los Angeles Center
Sat 09:52:15 AM 36.5572 -113.5747 70° East 438 504 33,300 639 Climbing Los Angeles Center
Sat 09:53:16 AM 36.5975 -113.4356 70° East 433 498 34,300 836 Climbing Los Angeles Center
Sat 09:54:17 AM 36.6464 -113.2733 69° East 422 486 35,000 344 Climbing Los Angeles Center
Sat 09:55:18 AM 36.6856 -113.1339 71° East 425 489 35,000  Level Los Angeles Center
Sat 09:56:19 AM 36.7267 -112.9933 70° East 432 497 35,000  Level Los Angeles Center
Sat 09:57:21 AM 36.7683 -112.8506 70° East 438 504 35,000  Level Los Angeles Center
Sat 09:58:22 AM 36.8081 -112.7075 71° East 439 505 35,000  Level Los Angeles Center
Sat 09:59:23 AM 36.8500 -112.5633 70° East 443 510 35,000  Level Los Angeles Center
Sat 10:00:24 AM 36.8908 -112.4189 70° East 445 512 35,000  Level Los Angeles Center
Sat 10:01:25 AM 36.9319 -112.2742 70° East 445 512 35,000  Level Los Angeles Center
Sat 10:02:26 AM 36.9714 -112.1303 71° East 442 509 35,000  Level Los Angeles Center
Sat 10:02:55 AM 36.9947 -112.0450 71° East 440 506 35,000  Level Denver Center
Sat 10:03:56 AM 37.0358 -111.9014 70° East 441 507 35,000  Level Denver Center
Sat 10:04:57 AM 37.0758 -111.7581 71° East 439 505 35,000  Level Denver Center
Sat 10:05:58 AM 37.1144 -111.6144 71° East 438 504 35,000  Level Denver Center
Sat 10:06:59 AM 37.1536 -111.4714 71° East 437 503 35,000  Level Denver Center
Sat 10:08:00 AM 37.1914 -111.3292 72° East 434 499 35,000  Level Denver Center
Sat 10:09:02 AM 37.2297 -111.1864 71° East 434 499 35,000  Level Denver Center
Sat 10:10:03 AM 37.2750 -111.0142 72° East 435 501 35,000 246 Level Denver Center
Sat 10:11:04 AM 37.3136 -110.8722 71° East 432 497 35,500 689 Climbing Denver Center
Sat 10:12:05 AM 37.3506 -110.7325 72° East 425 489 36,400 585 Climbing Denver Center
Sat 10:13:07 AM 37.3989 -110.6067 64° Northeast 404 465 36,700 293 Climbing Denver Center
Sat 10:14:08 AM 37.4406 -110.5083 62° Northeast 401 461 37,000 148 Climbing Denver Center
Sat 10:15:09 AM 37.5086 -110.3475 62° Northeast 407 468 37,000  Level Denver Center
Sat 10:16:11 AM 37.5606 -110.2219 62° Northeast 420 483 37,000  Level Denver Center
Sat 10:17:12 AM 37.6225 -110.0750 62° Northeast 425 489 37,000  Level Denver Center
Sat 10:18:13 AM 37.6761 -109.9444 63° Northeast 434 499 37,000  Level Denver Center
Sat 10:19:15 AM 37.7294 -109.8142 63° Northeast 435 501 37,000  Level Denver Center
Sat 10:20:16 AM 37.7922 -109.6611 63° Northeast 437 503 37,000  Level Denver Center
Sat 10:21:18 AM 37.8450 -109.5328 62° Northeast 431 496 37,000 49 Level Denver Center
Sat 10:22:19 AM 37.9072 -109.3789 63° Northeast 438 504 37,100  Climbing Denver Center
Sat 10:23:21 AM 37.9600 -109.2483 63° Northeast 436 502 37,000 -49 Descending Denver Center
Sat 10:24:22 AM 38.0139 -109.1178 62° Northeast 436 502 37,000  Level Denver Center
Sat 10:25:24 AM 38.0717 -108.9717 63° Northeast 438 504 37,000  Level Denver Center
Sat 10:26:25 AM 38.1314 -108.8217 63° Northeast 431 496 37,000  Level Denver Center
Sat 10:27:27 AM 38.1833 -108.6928 63° Northeast 428 493 37,000  Level Denver Center
Sat 10:28:29 AM 38.2342 -108.5661 63° Northeast 422 486 37,000  Level Denver Center
Sat 10:29:30 AM 38.2931 -108.4147 64° Northeast 426 490 37,000  Level Denver Center
Sat 10:30:32 AM 38.3444 -108.2875 63° Northeast 425 489 37,000  Level Denver Center
Sat 10:31:33 AM 38.4031 -108.1369 64° Northeast 425 489 37,000  Level Denver Center
Sat 10:32:35 AM 38.4511 -108.0106 64° Northeast 418 481 37,000  Level Denver Center
Sat 10:33:37 AM 38.5097 -107.8625 63° Northeast 419 482 37,000  Level Denver Center
Sat 10:34:50 AM 38.5586 -107.7369 63° Northeast 414 476 37,000  Level Denver Center
Sat 10:35:52 AM 38.6236 -107.5672 64° Northeast 417 480 37,000  Level Denver Center
Sat 10:36:54 AM 38.6717 -107.4403 64° Northeast 415 478 37,000 -48 Level Denver Center
Sat 10:37:56 AM 38.7281 -107.2925 64° Northeast 414 476 36,900 -581 Descending Denver Center
Sat 10:38:58 AM 38.7819 -107.1506 64° Northeast 427 491 35,800 -1,016 Descending Denver Center
Sat 10:40:00 AM 38.8361 -107.0075 64° Northeast 443 510 34,800 -927 Descending Denver Center
Sat 10:41:01 AM 38.8894 -106.8650 64° Northeast 443 510 33,900 -1,024 Descending Denver Center
Sat 10:42:03 AM 38.9483 -106.7092 64° Northeast 435 501 32,700 -1,016 Descending Denver Center
Sat 10:43:05 AM 38.9978 -106.5756 65° Northeast 434 499 31,800 -919 Descending Denver Center
Sat 10:44:07 AM 39.0472 -106.4408 65° Northeast 435 501 30,800 -1,016 Descending Denver Center
Sat 10:45:09 AM 39.1047 -106.2833 65° Northeast 436 502 29,700 -1,113 Descending Denver Center
Sat 10:46:11 AM 39.1519 -106.1539 65° Northeast 433 498 28,500 -1,415 Descending Denver Center
Sat 10:47:12 AM 39.2106 -105.9947 65° Northeast 420 483 26,800 -1,610 Descending Denver Center
Sat 10:48:14 AM 39.2586 -105.8597 65° Northeast 412 474 25,200 -1,500 Descending Denver Center
Sat 10:49:16 AM 39.3039 -105.7347 65° Northeast 387 445 23,700 -1,452 Descending Denver Center
Sat 10:50:18 AM 39.3481 -105.6114 65° Northeast 376 433 22,200 -1,452 Descending Denver Center
Sat 10:51:20 AM 39.3922 -105.4886 65° Northeast 374 430 20,700 -1,548 Descending Denver Center
Sat 10:52:22 AM 39.4536 -105.3739 55° Northeast 351 404 19,000 -1,645 Descending Denver Center
Sat 10:53:24 AM 39.5061 -105.2681 57° Northeast 352 405 17,300 -1,500 Descending Denver Center
Sat 10:54:26 AM 39.5622 -105.1642 55° Northeast 353 406 15,900 -1,161 Descending Denver Center
Sat 10:55:28 AM 39.6142 -105.0458 60° Northeast 352 405 14,900 -968 Descending Denver Center
Sat 10:56:30 AM 39.6597 -104.9394 61° Northeast 336 387 13,900 -927 Descending Denver Center
Sat 10:57:31 AM 39.7092 -104.8297 60° Northeast 325 374 13,000 -732 Descending Denver Center
Sat 10:58:33 AM 39.7467 -104.7525 58° Northeast 331 381 12,400 -919 Descending Denver Center
Sat 10:59:35 AM 39.7644 -104.6100 81° East 317 365 11,100 -726 Descending Denver Center
Sat 11:00:37 AM 39.7650 -104.5031 90° East 298 343 10,900 -816 Descending Denver Center
Sat 11:01:40 AM 39.7833 -104.4069 76° East 265 305 9,400 -1,429 Descending Denver Center

Login

Don't have an account? Register now (free) for customized features, flight alerts, and more!